createdAt,value
2018-06-28T00:00:44.867Z,15.30
2018-06-28T00:03:15.530Z,15.30
2018-06-28T00:05:46.138Z,15.30
2018-06-28T00:08:16.836Z,15.30
2018-06-28T00:10:47.546Z,15.30
2018-06-28T00:13:18.215Z,15.30
2018-06-28T00:15:48.877Z,15.30
2018-06-28T00:18:19.705Z,15.30
2018-06-28T00:20:50.364Z,15.40
2018-06-28T00:23:21.269Z,15.30
2018-06-28T00:25:52.018Z,15.40
2018-06-28T00:28:22.650Z,15.40
2018-06-28T00:30:53.265Z,15.40
2018-06-28T00:33:24.005Z,15.40
2018-06-28T00:35:54.706Z,15.40
2018-06-28T00:38:25.364Z,15.40
2018-06-28T00:40:56.010Z,15.40
2018-06-28T00:43:26.680Z,15.30
2018-06-28T00:45:57.717Z,15.30
2018-06-28T00:48:28.431Z,15.30
2018-06-28T00:53:29.217Z,15.30
2018-06-28T00:55:59.973Z,15.30
2018-06-28T00:58:30.727Z,15.30
2018-06-28T01:01:01.421Z,15.30
2018-06-28T01:03:32.252Z,15.30
2018-06-28T01:06:02.898Z,15.30
2018-06-28T01:08:33.909Z,15.30
2018-06-28T01:11:04.549Z,15.30
2018-06-28T01:13:35.210Z,15.30
2018-06-28T01:16:06.192Z,15.30
2018-06-28T01:18:36.884Z,15.30
2018-06-28T01:21:07.601Z,15.30
2018-06-28T01:23:38.574Z,15.20
2018-06-28T01:26:09.224Z,15.20
2018-06-28T01:28:39.971Z,15.20
2018-06-28T01:31:10.854Z,15.20
2018-06-28T01:33:41.639Z,15.20
2018-06-28T01:36:12.450Z,15.20
2018-06-28T01:38:43.265Z,15.20
2018-06-28T01:41:13.933Z,15.20
2018-06-28T01:43:45.767Z,15.30
2018-06-28T01:46:17.480Z,15.20
2018-06-28T01:48:48.189Z,15.20
2018-06-28T01:51:18.761Z,15.20
2018-06-28T01:53:49.422Z,15.20
2018-06-28T01:56:19.994Z,15.30
2018-06-28T01:58:51.569Z,15.30
2018-06-28T02:01:22.161Z,15.40
2018-06-28T02:03:52.893Z,15.30
2018-06-28T02:06:23.541Z,15.40
2018-06-28T02:08:54.167Z,15.30
2018-06-28T02:11:24.774Z,15.30
2018-06-28T02:13:55.498Z,15.30
2018-06-28T02:16:26.188Z,15.30
2018-06-28T02:18:56.897Z,15.30
2018-06-28T02:21:27.522Z,15.30
2018-06-28T02:23:58.456Z,15.30
2018-06-28T02:26:29.040Z,15.30
2018-06-28T02:28:59.673Z,15.30
2018-06-28T02:31:30.300Z,15.30
2018-06-28T02:34:00.943Z,15.30
2018-06-28T02:36:31.515Z,15.30
2018-06-28T02:39:02.114Z,15.30
2018-06-28T02:41:32.700Z,15.30
2018-06-28T02:44:03.360Z,15.30
2018-06-28T02:46:33.950Z,15.30
2018-06-28T02:49:04.736Z,15.30
2018-06-28T02:51:35.383Z,15.30
2018-06-28T02:54:06.095Z,15.30
2018-06-28T02:56:36.693Z,15.30
2018-06-28T02:59:07.272Z,15.40
2018-06-28T03:01:37.834Z,15.30
2018-06-28T03:04:08.483Z,15.30
2018-06-28T03:06:39.808Z,15.30
2018-06-28T03:09:11.922Z,15.30
2018-06-28T03:11:42.646Z,15.30
2018-06-28T03:14:13.249Z,15.30
2018-06-28T03:16:43.851Z,15.30
2018-06-28T03:19:14.483Z,15.30
2018-06-28T03:21:45.715Z,15.30
2018-06-28T03:24:16.471Z,15.30
2018-06-28T03:26:47.227Z,15.30
2018-06-28T03:29:17.902Z,15.40
2018-06-28T03:31:48.470Z,15.40
2018-06-28T03:34:19.327Z,15.40
2018-06-28T03:36:49.902Z,15.50
2018-06-28T03:39:20.724Z,15.50
2018-06-28T03:41:52.529Z,15.60
2018-06-28T03:44:23.154Z,15.60
2018-06-28T03:49:23.955Z,15.60
2018-06-28T03:51:54.595Z,15.50
2018-06-28T03:54:25.284Z,15.60
2018-06-28T03:56:55.928Z,15.60
2018-06-28T03:59:26.618Z,15.60
2018-06-28T04:01:57.235Z,15.60
2018-06-28T04:04:27.839Z,15.60
2018-06-28T04:06:58.402Z,15.70
2018-06-28T04:09:29.038Z,15.70
2018-06-28T04:11:59.671Z,15.70
2018-06-28T04:14:30.300Z,15.70
2018-06-28T04:17:00.911Z,15.80
2018-06-28T04:19:31.613Z,15.80
2018-06-28T04:22:02.330Z,15.80
2018-06-28T04:24:33.064Z,15.90
2018-06-28T04:27:03.754Z,15.80
2018-06-28T04:29:34.345Z,15.80
2018-06-28T04:32:05.032Z,15.80
2018-06-28T04:34:35.707Z,15.90
2018-06-28T04:37:06.449Z,15.90
2018-06-28T04:39:37.534Z,15.90
2018-06-28T04:42:08.186Z,15.90
2018-06-28T04:44:38.856Z,16.00
2018-06-28T04:47:09.483Z,16.00
2018-06-28T04:49:40.732Z,16.10
2018-06-28T04:52:11.397Z,16.20
2018-06-28T04:54:42.046Z,16.30
2018-06-28T04:57:12.657Z,16.40
2018-06-28T04:59:43.334Z,16.50
2018-06-28T05:02:13.911Z,16.50
2018-06-28T05:04:44.488Z,16.60
2018-06-28T05:07:15.200Z,16.60
2018-06-28T05:09:45.805Z,16.70
2018-06-28T05:12:16.437Z,16.70
2018-06-28T05:14:47.037Z,16.80
2018-06-28T05:17:17.690Z,16.80
2018-06-28T05:19:48.276Z,16.80
2018-06-28T05:22:18.934Z,16.80
2018-06-28T05:24:49.552Z,16.80
2018-06-28T05:27:20.532Z,16.80
2018-06-28T05:29:51.138Z,16.80
2018-06-28T05:32:21.750Z,16.90
2018-06-28T05:34:52.387Z,16.90
2018-06-28T05:37:23.117Z,16.90
2018-06-28T05:39:53.662Z,16.90
2018-06-28T05:42:24.449Z,16.90
2018-06-28T05:44:55.167Z,16.90
2018-06-28T05:47:25.847Z,16.90
2018-06-28T05:49:56.472Z,16.90
2018-06-28T05:52:27.113Z,16.90
2018-06-28T05:54:57.746Z,17.00
2018-06-28T05:57:28.421Z,17.00
2018-06-28T05:59:59.009Z,17.20
2018-06-28T06:02:29.625Z,17.40
2018-06-28T06:05:00.225Z,17.70
2018-06-28T06:07:30.819Z,17.90
2018-06-28T06:10:01.336Z,18.20
2018-06-28T06:12:31.909Z,18.30
2018-06-28T06:15:02.531Z,18.50
2018-06-28T06:17:33.106Z,18.60
2018-06-28T06:20:03.661Z,18.60
2018-06-28T06:22:34.238Z,18.60
2018-06-28T06:25:05.178Z,18.50
2018-06-28T06:27:35.764Z,18.50
2018-06-28T06:30:07.812Z,18.60
2018-06-28T06:32:38.438Z,18.60
2018-06-28T06:35:09.082Z,18.60
2018-06-28T06:37:39.653Z,18.60
2018-06-28T06:40:10.311Z,18.60
2018-06-28T06:42:40.885Z,18.70
2018-06-28T06:45:11.499Z,18.80
2018-06-28T06:47:42.103Z,18.90
2018-06-28T06:50:12.741Z,19.00
2018-06-28T06:52:43.293Z,19.10
2018-06-28T06:55:13.839Z,19.30
2018-06-28T06:57:44.413Z,19.50
2018-06-28T07:00:14.943Z,19.70
2018-06-28T07:02:45.501Z,19.90
2018-06-28T07:05:16.342Z,20.20
2018-06-28T07:07:46.965Z,20.40
2018-06-28T07:10:17.513Z,20.60
2018-06-28T07:12:48.082Z,20.80
2018-06-28T07:15:18.638Z,21.00
2018-06-28T07:17:49.215Z,21.00
2018-06-28T07:20:19.807Z,21.20
2018-06-28T07:22:50.535Z,21.30
2018-06-28T07:25:21.049Z,21.40
2018-06-28T07:27:51.623Z,21.30
2018-06-28T07:30:22.265Z,21.30
2018-06-28T07:32:52.826Z,21.30
2018-06-28T07:35:23.528Z,21.30
2018-06-28T07:37:54.149Z,21.40
2018-06-28T07:40:24.798Z,21.50
2018-06-28T07:42:55.394Z,21.60
2018-06-28T07:45:26.017Z,21.60
2018-06-28T07:47:56.641Z,21.60
2018-06-28T07:50:27.347Z,21.50
2018-06-28T07:52:57.985Z,21.50
2018-06-28T07:55:28.684Z,21.50
2018-06-28T07:57:59.265Z,21.50
2018-06-28T08:03:00.086Z,21.50
2018-06-28T08:05:30.743Z,21.50
2018-06-28T08:08:01.347Z,21.50
2018-06-28T08:10:31.956Z,21.50
2018-06-28T08:13:02.527Z,21.50
2018-06-28T08:15:33.098Z,21.60
2018-06-28T08:18:03.745Z,21.60
2018-06-28T08:20:34.305Z,21.70
2018-06-28T08:23:04.930Z,21.70
2018-06-28T08:25:35.593Z,21.80
2018-06-28T08:30:36.422Z,21.90
2018-06-28T08:33:07.132Z,22.00
2018-06-28T08:35:37.752Z,22.10
2018-06-28T08:38:08.347Z,22.10
2018-06-28T08:40:39.017Z,22.30
2018-06-28T08:43:09.651Z,22.40
2018-06-28T08:45:40.302Z,22.50
2018-06-28T08:48:10.956Z,22.60
2018-06-28T08:50:41.503Z,22.80
2018-06-28T08:55:42.238Z,22.90
2018-06-28T08:58:12.854Z,23.00
2018-06-28T09:00:43.410Z,23.10
2018-06-28T09:05:44.153Z,23.20
2018-06-28T09:10:44.933Z,23.10
2018-06-28T09:13:15.519Z,23.20
2018-06-28T09:15:46.152Z,23.50
2018-06-28T09:18:16.715Z,23.60
2018-06-28T09:20:47.378Z,23.70
2018-06-28T09:23:18.007Z,23.90
2018-06-28T09:25:48.605Z,24.20
2018-06-28T09:28:19.234Z,24.50
2018-06-28T09:30:49.827Z,24.70
2018-06-28T09:33:20.423Z,24.70
2018-06-28T09:35:51.043Z,24.90
2018-06-28T09:38:21.617Z,25.00
2018-06-28T09:40:52.208Z,25.30
2018-06-28T09:43:22.764Z,25.50
2018-06-28T09:45:53.382Z,25.50
2018-06-28T09:48:23.977Z,25.60
2018-06-28T09:53:24.747Z,25.90
2018-06-28T09:55:55.294Z,26.00
2018-06-28T09:58:25.858Z,26.20
2018-06-28T10:00:56.487Z,26.00
2018-06-28T10:03:27.086Z,25.80
2018-06-28T10:05:57.675Z,25.70
2018-06-28T10:08:28.291Z,25.60
2018-06-28T10:10:58.862Z,25.60
2018-06-28T10:13:29.467Z,25.60
2018-06-28T10:16:00.052Z,25.70
2018-06-28T10:18:30.686Z,25.80
2018-06-28T10:21:01.353Z,26.00
2018-06-28T10:23:31.954Z,26.10
2018-06-28T10:26:02.570Z,26.20
2018-06-28T10:28:33.169Z,26.40
2018-06-28T10:31:03.843Z,26.60
2018-06-28T10:33:34.440Z,26.70
2018-06-28T10:36:05.054Z,26.70
2018-06-28T10:38:35.622Z,26.50
2018-06-28T10:41:06.211Z,26.40
2018-06-28T10:43:36.872Z,26.20
2018-06-28T10:46:07.489Z,26.00
2018-06-28T10:48:38.062Z,25.90
2018-06-28T10:51:08.745Z,25.80
2018-06-28T10:53:39.488Z,25.70
2018-06-28T10:56:10.075Z,25.50
2018-06-28T10:58:40.686Z,25.40
2018-06-28T11:01:11.292Z,25.30
2018-06-28T11:03:41.922Z,25.10
2018-06-28T11:06:12.499Z,24.90
2018-06-28T11:08:43.251Z,24.80
2018-06-28T11:11:13.922Z,24.70
2018-06-28T11:13:44.521Z,24.70
2018-06-28T11:16:15.105Z,24.70
2018-06-28T11:18:45.857Z,24.70
2018-06-28T11:21:16.362Z,24.70
2018-06-28T11:23:47.093Z,24.70
2018-06-28T11:26:17.659Z,24.80
2018-06-28T11:28:48.280Z,25.00
2018-06-28T11:31:18.845Z,25.20
2018-06-28T11:33:49.457Z,25.20
2018-06-28T11:36:20.483Z,25.30
2018-06-28T11:38:51.406Z,25.40
2018-06-28T11:41:22.076Z,25.40
2018-06-28T11:43:52.742Z,25.30
2018-06-28T11:46:23.333Z,25.30
2018-06-28T11:51:24.126Z,25.50
2018-06-28T11:53:54.725Z,25.60
2018-06-28T11:56:25.397Z,25.70
2018-06-28T11:58:56.032Z,25.60
2018-06-28T12:01:26.725Z,25.60
2018-06-28T12:03:57.313Z,25.60
2018-06-28T12:06:28.730Z,25.60
2018-06-28T12:08:59.348Z,25.60
2018-06-28T12:11:29.972Z,25.60
2018-06-28T12:14:00.623Z,25.70
2018-06-28T12:16:31.203Z,25.90
2018-06-28T12:19:01.795Z,26.20
2018-06-28T12:21:32.528Z,26.50
2018-06-28T12:24:03.358Z,26.80
2018-06-28T12:26:33.913Z,27.10
2018-06-28T12:29:05.366Z,27.30
2018-06-28T12:31:35.977Z,27.30
2018-06-28T12:34:06.773Z,27.30
2018-06-28T12:36:37.352Z,27.20
2018-06-28T12:39:10.331Z,27.10
2018-06-28T12:41:40.936Z,27.10
2018-06-28T12:44:11.543Z,26.90
2018-06-28T12:48:11.527Z,26.80
2018-06-28T12:50:42.144Z,26.90
2018-06-28T12:53:13.506Z,27.40
2018-06-28T12:56:50.929Z,27.60
2018-06-28T12:59:22.825Z,27.80
2018-06-28T13:01:53.405Z,28.10
2018-06-28T13:04:24.059Z,27.80
2018-06-28T13:06:54.734Z,27.80
2018-06-28T13:09:25.398Z,27.80
2018-06-28T13:11:56.048Z,27.80
2018-06-28T13:14:26.695Z,27.70
2018-06-28T13:19:27.380Z,27.60
2018-06-28T13:21:58.020Z,27.60
2018-06-28T13:24:28.690Z,27.70
2018-06-28T13:26:59.313Z,27.80
2018-06-28T13:29:30.068Z,27.80
2018-06-28T13:32:00.724Z,27.90
2018-06-28T13:34:31.367Z,27.80
2018-06-28T13:37:01.961Z,27.70
2018-06-28T13:39:32.713Z,27.60
2018-06-28T13:42:03.516Z,27.60
2018-06-28T13:44:34.027Z,27.60
2018-06-28T13:47:09.428Z,27.40
2018-06-28T13:49:39.982Z,27.30
2018-06-28T13:52:10.589Z,27.00
2018-06-28T13:54:41.262Z,26.90
2018-06-28T13:57:11.930Z,26.80
2018-06-28T13:59:42.597Z,26.60
2018-06-28T14:02:13.210Z,26.50
2018-06-28T14:04:43.798Z,26.40
2018-06-28T14:07:14.614Z,26.30
2018-06-28T14:09:45.343Z,26.20
2018-06-28T14:12:15.886Z,26.20
2018-06-28T14:14:47.201Z,26.20
2018-06-28T14:17:17.768Z,26.20
2018-06-28T14:19:48.703Z,26.20
2018-06-28T14:22:19.315Z,26.20
2018-06-28T14:24:49.881Z,26.10
2018-06-28T14:29:50.579Z,26.20
2018-06-28T14:32:21.137Z,26.20
2018-06-28T14:34:51.761Z,26.20
2018-06-28T14:37:22.418Z,26.10
2018-06-28T14:39:53.063Z,26.10
2018-06-28T14:42:23.668Z,26.10
2018-06-28T14:44:54.303Z,26.20
2018-06-28T14:47:24.806Z,26.40
2018-06-28T14:49:55.403Z,26.40
2018-06-28T14:52:26.034Z,26.40
2018-06-28T14:54:56.611Z,26.40
2018-06-28T14:57:27.317Z,26.30
2018-06-28T14:59:57.950Z,26.20
2018-06-28T15:02:28.505Z,26.10
2018-06-28T15:04:59.130Z,26.10
2018-06-28T15:07:29.667Z,26.00
2018-06-28T15:10:00.276Z,26.00
2018-06-28T15:12:30.789Z,25.90
2018-06-28T15:15:01.415Z,25.90
2018-06-28T15:17:31.976Z,25.90
2018-06-28T15:20:02.620Z,25.80
2018-06-28T15:22:33.165Z,25.80
2018-06-28T15:25:03.747Z,25.80
2018-06-28T15:27:34.369Z,25.80
2018-06-28T15:30:05.459Z,25.80
2018-06-28T15:32:36.037Z,25.80
2018-06-28T15:35:06.727Z,25.70
2018-06-28T15:37:37.341Z,25.50
2018-06-28T15:40:08.802Z,25.40
2018-06-28T15:42:39.471Z,25.30
2018-06-28T15:45:10.086Z,25.30
2018-06-28T15:47:40.694Z,25.20
2018-06-28T15:50:11.316Z,25.10
2018-06-28T15:52:41.955Z,25.00
2018-06-28T15:55:12.546Z,24.90
2018-06-28T15:57:43.192Z,24.80
2018-06-28T16:00:13.799Z,24.80
2018-06-28T16:02:44.466Z,24.70
2018-06-28T16:05:15.081Z,24.70
2018-06-28T16:07:45.665Z,24.70
2018-06-28T16:10:16.307Z,24.70
2018-06-28T16:12:46.873Z,24.60
2018-06-28T16:15:17.504Z,24.70
2018-06-28T16:17:48.356Z,24.70
2018-06-28T16:20:19.035Z,24.70
2018-06-28T16:22:49.724Z,24.70
2018-06-28T16:25:20.399Z,24.80
2018-06-28T16:27:51.071Z,24.80
2018-06-28T16:30:21.779Z,24.80
2018-06-28T16:32:52.448Z,24.90
2018-06-28T16:35:23.026Z,24.90
2018-06-28T16:37:53.652Z,25.00
2018-06-28T16:40:24.313Z,25.00
2018-06-28T16:42:54.941Z,25.10
2018-06-28T16:45:25.550Z,25.10
2018-06-28T16:47:56.153Z,25.10
2018-06-28T16:50:26.917Z,25.10
2018-06-28T16:55:27.860Z,25.30
2018-06-28T16:57:58.518Z,26.10
2018-06-28T17:00:29.183Z,27.20
2018-06-28T17:02:59.771Z,27.70
2018-06-28T17:05:30.517Z,27.70
2018-06-28T17:08:01.205Z,27.40
2018-06-28T17:10:31.867Z,27.10
2018-06-28T17:15:32.682Z,26.30
2018-06-28T17:18:03.318Z,26.00
2018-06-28T17:20:33.992Z,25.60
2018-06-28T17:23:04.703Z,25.40
2018-06-28T17:25:35.418Z,25.20
2018-06-28T17:28:06.365Z,25.10
2018-06-28T17:30:37.047Z,24.90
2018-06-28T17:33:07.661Z,24.80
2018-06-28T17:35:38.658Z,24.60
2018-06-28T17:38:09.392Z,24.50
2018-06-28T17:40:40.083Z,24.40
2018-06-28T17:43:10.760Z,24.30
2018-06-28T17:45:41.392Z,24.20
2018-06-28T17:48:12.052Z,24.00
2018-06-28T17:50:42.898Z,23.90
2018-06-28T17:53:13.463Z,23.80
2018-06-28T17:55:44.369Z,23.70
2018-06-28T17:58:14.997Z,23.60
2018-06-28T18:00:45.650Z,23.60
2018-06-28T18:03:16.322Z,23.50
2018-06-28T18:05:47.330Z,23.40
2018-06-28T18:08:17.882Z,23.30
2018-06-28T18:10:48.585Z,23.20
2018-06-28T18:13:19.281Z,23.20
2018-06-28T18:15:49.941Z,23.10
2018-06-28T18:18:20.850Z,23.10
2018-06-28T18:20:51.628Z,23.00
2018-06-28T18:23:22.226Z,23.00
2018-06-28T18:25:52.861Z,22.90
2018-06-28T18:28:23.472Z,22.80
2018-06-28T18:30:54.169Z,22.80
2018-06-28T18:33:24.811Z,22.70
2018-06-28T18:35:55.767Z,22.60
2018-06-28T18:38:26.504Z,22.50
2018-06-28T18:40:57.130Z,22.40
2018-06-28T18:43:27.796Z,22.30
2018-06-28T18:45:58.460Z,22.20
2018-06-28T18:48:29.066Z,22.10
2018-06-28T18:50:59.682Z,22.00
2018-06-28T18:53:30.354Z,21.90
2018-06-28T18:56:01.647Z,21.80
2018-06-28T18:58:32.219Z,21.70
2018-06-28T19:01:02.898Z,21.60
2018-06-28T19:03:33.736Z,21.60
2018-06-28T19:06:04.335Z,21.50
2018-06-28T19:08:35.024Z,21.40
2018-06-28T19:11:05.689Z,21.30
2018-06-28T19:13:40.257Z,21.30
2018-06-28T19:16:16.065Z,21.20
2018-06-28T19:18:46.610Z,21.20
2018-06-28T19:21:22.256Z,21.10
2018-06-28T19:23:53.461Z,21.10
2018-06-28T19:26:24.123Z,21.10
2018-06-28T19:28:54.733Z,21.10
2018-06-28T19:31:30.601Z,21.10
2018-06-28T19:34:01.213Z,21.00
2018-06-28T19:36:32.144Z,21.00
2018-06-28T19:39:07.806Z,21.00
2018-06-28T19:41:43.479Z,21.00
2018-06-28T19:44:14.043Z,21.00
2018-06-28T19:46:44.748Z,20.90
2018-06-28T19:49:20.486Z,20.90
2018-06-28T19:51:56.304Z,20.90
2018-06-28T19:54:26.855Z,20.90
2018-06-28T19:56:57.590Z,20.90
2018-06-28T19:59:28.688Z,20.80
2018-06-28T20:02:04.746Z,20.80
2018-06-28T20:04:40.442Z,20.70
2018-06-28T20:07:11.094Z,20.70
2018-06-28T20:09:41.860Z,20.60
2018-06-28T20:12:17.680Z,20.60
2018-06-28T20:14:53.210Z,20.40
2018-06-28T20:17:29.037Z,20.30
2018-06-28T20:20:05.060Z,20.30
2018-06-28T20:22:35.677Z,20.20
2018-06-28T20:25:06.317Z,20.20
2018-06-28T20:27:41.925Z,20.10
2018-06-28T20:30:17.581Z,20.10
2018-06-28T20:32:53.229Z,20.00
2018-06-28T20:35:23.846Z,20.00
2018-06-28T20:37:54.749Z,19.90
2018-06-28T20:40:25.306Z,19.80
2018-06-28T20:42:55.945Z,19.80
2018-06-28T20:45:26.659Z,19.70
2018-06-28T20:47:57.334Z,19.70
2018-06-28T20:50:27.889Z,19.60
2018-06-28T20:52:58.578Z,19.60
2018-06-28T20:55:29.197Z,19.60
2018-06-28T20:57:59.843Z,19.60
2018-06-28T21:00:30.434Z,19.60
2018-06-28T21:03:01.253Z,19.60
2018-06-28T21:05:31.815Z,19.60
2018-06-28T21:08:02.394Z,19.50
2018-06-28T21:10:33.129Z,19.50
2018-06-28T21:13:03.941Z,19.50
2018-06-28T21:15:34.578Z,19.40
2018-06-28T21:18:05.295Z,19.40
2018-06-28T21:20:36.010Z,19.40
2018-06-28T21:23:06.733Z,19.40
2018-06-28T21:25:37.334Z,19.40
2018-06-28T21:28:08.090Z,19.40
2018-06-28T21:30:38.714Z,19.40
2018-06-28T21:33:09.400Z,19.40
2018-06-28T21:35:40.008Z,19.40
2018-06-28T21:38:10.934Z,19.40
2018-06-28T21:40:41.495Z,19.40
2018-06-28T21:43:12.207Z,19.30
2018-06-28T21:45:42.822Z,19.30
2018-06-28T21:48:13.527Z,19.40
2018-06-28T21:50:44.081Z,19.40
2018-06-28T21:53:14.791Z,19.30
2018-06-28T21:55:45.442Z,19.30
2018-06-28T21:58:16.017Z,19.30
2018-06-28T22:00:46.638Z,19.30
2018-06-28T22:03:17.183Z,19.30
2018-06-28T22:05:47.776Z,19.30
2018-06-28T22:08:18.469Z,19.30
2018-06-28T22:10:49.005Z,19.30
2018-06-28T22:13:19.683Z,19.30
2018-06-28T22:15:50.286Z,19.30
2018-06-28T22:18:20.849Z,19.30
2018-06-28T22:20:51.837Z,19.30
2018-06-28T22:23:22.670Z,19.30
2018-06-28T22:25:53.247Z,19.30
2018-06-28T22:28:23.827Z,19.30
2018-06-28T22:30:54.465Z,19.30
2018-06-28T22:33:25.479Z,19.30
2018-06-28T22:35:56.078Z,19.30
2018-06-28T22:38:26.741Z,19.30
2018-06-28T22:40:57.374Z,19.30
2018-06-28T22:43:28.354Z,19.30
2018-06-28T22:45:58.918Z,19.30
2018-06-28T22:48:29.549Z,19.30
2018-06-28T22:51:00.188Z,19.20
2018-06-28T22:53:30.832Z,19.20
2018-06-28T22:56:01.422Z,19.20
2018-06-28T22:58:31.987Z,19.20
2018-06-28T23:01:02.575Z,19.20
2018-06-28T23:03:33.416Z,19.20
2018-06-28T23:06:04.083Z,19.20
2018-06-28T23:08:34.661Z,19.20
2018-06-28T23:11:05.459Z,19.10
2018-06-28T23:13:36.012Z,19.10
2018-06-28T23:16:07.454Z,19.10
2018-06-28T23:18:38.041Z,19.10
2018-06-28T23:21:08.741Z,19.10
2018-06-28T23:23:39.386Z,19.10
2018-06-28T23:26:09.957Z,19.10
2018-06-28T23:28:40.509Z,19.10
2018-06-28T23:31:11.171Z,19.00
2018-06-28T23:33:41.721Z,19.00
2018-06-28T23:36:12.354Z,19.00
2018-06-28T23:38:42.926Z,19.00
2018-06-28T23:41:13.594Z,18.90
2018-06-28T23:43:44.131Z,18.90
2018-06-28T23:46:14.827Z,18.90
2018-06-28T23:48:45.397Z,18.80
2018-06-28T23:51:15.984Z,18.80
2018-06-28T23:53:46.544Z,18.80
2018-06-28T23:56:17.130Z,18.80
2018-06-28T23:58:47.721Z,18.90
